Time;durP1;ratioP1;P1;durP2;ratioP2;P2;SDS_P1;SDS_P2;PMS_P1;PMS_P2;Temp;Humidity;BMP_temperature;BMP_pressure;BME280_temperature;BME280_humidity;BME280_pressure;Samples;Min_cycle;Max_cycle;Signal;HPM_P1;HPM_P2
2021/12/07 00:01:39;;;;;;;;;;;;;;;;;;4776357;29;32676;-70
2021/12/07 00:04:05;;;;;;;;;;;;;;;;;;4774863;29;32584;-70
2021/12/07 00:06:31;;;;;;;;;;;;;;;;;;4775973;29;32389;-70
2021/12/07 00:08:58;;;;;;;;;;;;;;;;;;4775978;29;33945;-71
2021/12/07 00:11:26;;;;;;;;;;;;;;;;;;4775336;29;32572;-70
2021/12/07 00:13:57;;;;;;;;;;;;;;;;;;4775933;29;32396;-70
2021/12/07 00:16:23;;;;;;;;;;;;;;;;;;4776010;29;32431;-70
2021/12/07 00:18:49;;;;;;;;;;;;;;;;;;4775300;29;34914;-70
2021/12/07 00:21:17;;;;;;;;;;;;;;;;;;4775974;29;32424;-70
2021/12/07 00:23:43;;;;;;;;;;;;;;;;;;4775637;29;32401;-69
2021/12/07 00:26:12;;;;;;;;;;;;;;;;;;4775474;29;32457;-69
2021/12/07 00:28:38;;;;;;;;;;;;;;;;;;4776154;29;32583;-69
2021/12/07 00:31:21;;;;;;;;;;;;;;;;;;4775487;29;34356;-70
2021/12/07 00:33:54;;;;;;;;;;;;;;;;;;4775079;29;32345;-70
2021/12/07 00:36:20;;;;;;;;;;;;;;;;;;4771524;29;32530;-69
2021/12/07 00:38:46;;;;;;;;;;;;;;;;;;4775529;29;32431;-69
2021/12/07 00:41:13;;;;;;;;;;;;;;;;;;4774963;29;35595;-70
2021/12/07 00:43:39;;;;;;;;;;;;;;;;;;4760686;29;32436;-69
2021/12/07 00:46:08;;;;;;;;;;;;;;;;;;4741123;29;32633;-69
2021/12/07 00:48:35;;;;;;;;;;;;;;;;;;4755425;29;32453;-70
2021/12/07 00:51:01;;;;;;;;;;;;;;;;;;4757795;29;32397;-69
2021/12/07 00:53:28;;;;;;;;;;;;;;;;;;4757234;29;34337;-69
2021/12/07 00:55:56;;;;;;;;;;;;;;;;;;4756659;29;32334;-69
2021/12/07 00:58:24;;;;;;;;;;;;;;;;;;4756833;29;32496;-69
2021/12/07 01:00:53;;;;;;;;;;;;;;;;;;4756710;29;32425;-68
2021/12/07 01:03:21;;;;;;;;;;;;;;;;;;4768639;29;34247;-68
2021/12/07 01:05:51;;;;;;;;;;;;;;;;;;4775241;29;32424;-68
2021/12/07 01:08:52;;;;;;;;;;;;;;;;;;4775330;29;32333;-68
2021/12/07 01:25:10;;;;;;;;;;;;;;;;;;4774772;29;32297;-69
2021/12/07 01:27:37;;;;;;;;;;;;;;;;;;4775036;29;35081;-69
2021/12/07 01:32:51;;;;;;;;;;;;;;;;;;4774207;29;32419;-69
2021/12/07 01:35:45;;;;;;;;;;;;;;;;;;4774923;29;32383;-69
2021/12/07 01:41:11;;;;;;;;;;;;;;;;;;4774029;29;35028;-69
2021/12/07 01:59:36;;;;;;;;;;;;;;;;;;4774785;29;32544;-70
2021/12/07 02:02:04;;;;;;;;;;;;;;;;;;4774505;29;32466;-69
2021/12/07 02:04:30;;;;;;;;;;;;;;;;;;4773965;29;34138;-70
2021/12/07 02:06:58;;;;;;;;;;;;;;;;;;4774357;29;32317;-69
2021/12/07 02:09:25;;;;;;;;;;;;;;;;;;4773763;29;32586;-70
2021/12/07 02:11:58;;;;;;;;;;;;;;;;;;4774327;29;32217;-69
2021/12/07 02:14:24;;;;;;;;;;;;;;;;;;4774182;29;34778;-67
2021/12/07 02:16:53;;;;;;;;;;;;;;;;;;4774027;29;32501;-68
2021/12/07 02:19:19;;;;;;;;;;;;;;;;;;4774525;29;32459;-67
2021/12/07 02:21:47;;;;;;;;;;;;;;;;;;4774407;29;32682;-68
2021/12/07 02:24:13;;;;;;;;;;;;;;;;;;4774036;29;32344;-68
2021/12/07 02:26:39;;;;;;;;;;;;;;;;;;4774372;29;34741;-68
2021/12/07 02:29:06;;;;;;;;;;;;;;;;;;4774043;29;32481;-67
2021/12/07 02:31:33;;;;;;;;;;;;;;;;;;4773618;29;32522;-70
2021/12/07 02:33:59;;;;;;;;;;;;;;;;;;4774372;29;32444;-70
2021/12/07 02:36:26;;;;;;;;;;;;;;;;;;4774018;29;33935;-70
2021/12/07 02:38:54;;;;;;;;;;;;;;;;;;4773412;29;32412;-69
2021/12/07 02:41:20;;;;;;;;;;;;;;;;;;4773738;29;32526;-69
2021/12/07 02:43:47;;;;;;;;;;;;;;;;;;4773885;29;32472;-69
2021/12/07 02:46:13;;;;;;;;;;;;;;;;;;4773745;29;32427;-70
2021/12/07 02:48:40;;;;;;;;;;;;;;;;;;4774390;29;34787;-69
2021/12/07 02:51:06;;;;;;;;;;;;;;;;;;4774110;29;32647;-67
2021/12/07 02:53:34;;;;;;;;;;;;;;;;;;4773127;29;32813;-65
2021/12/07 02:56:03;;;;;;;;;;;;;;;;;;4768276;29;32501;-66
2021/12/07 02:58:29;;;;;;;;;;;;;;;;;;4773067;29;34705;-65
2021/12/07 03:01:07;;;;;;;;;;;;;;;;;;4773151;29;32580;-65
2021/12/07 03:03:38;;;;;;;;;;;;;;;;;;4769194;29;32439;-65
2021/12/07 03:28:02;;;;;;;;;;;;;;;;;;4775961;29;32494;-67
2021/12/07 03:30:28;;;;;;;;;;;;;;;;;;4775779;29;32251;-66
2021/12/07 03:32:55;;;;;;;;;;;;;;;;;;4775999;29;32406;-66
2021/12/07 03:35:21;;;;;;;;;;;;;;;;;;4776576;29;32370;-66
2021/12/07 03:37:47;;;;;;;;;;;;;;;;;;4775605;29;32473;-66
2021/12/07 03:40:14;;;;;;;;;;;;;;;;;;4776028;29;32408;-66
2021/12/07 03:42:40;;;;;;;;;;;;;;;;;;4776382;29;32353;-66
2021/12/07 03:45:09;;;;;;;;;;;;;;;;;;4774533;29;34675;-67
2021/12/07 03:47:36;;;;;;;;;;;;;;;;;;4775347;29;32480;-65
2021/12/07 03:50:03;;;;;;;;;;;;;;;;;;4775735;29;32389;-66
2021/12/07 03:52:29;;;;;;;;;;;;;;;;;;4775636;29;32215;-66
2021/12/07 03:54:55;;;;;;;;;;;;;;;;;;4775726;29;32474;-65
2021/12/07 03:57:21;;;;;;;;;;;;;;;;;;4775551;29;32452;-65
2021/12/07 03:59:47;;;;;;;;;;;;;;;;;;4774955;29;32934;-65
2021/12/07 04:02:15;;;;;;;;;;;;;;;;;;4775281;29;32306;-65
2021/12/07 04:04:42;;;;;;;;;;;;;;;;;;4774887;29;32219;-67
2021/12/07 04:07:08;;;;;;;;;;;;;;;;;;4771161;29;34715;-67
2021/12/07 04:09:34;;;;;;;;;;;;;;;;;;4775474;29;32878;-66
2021/12/07 04:12:01;;;;;;;;;;;;;;;;;;4775412;29;32369;-66
2021/12/07 04:14:27;;;;;;;;;;;;;;;;;;4770241;29;32392;-67
2021/12/07 04:16:53;;;;;;;;;;;;;;;;;;4774515;29;32577;-67
2021/12/07 04:19:21;;;;;;;;;;;;;;;;;;4757130;29;32509;-67
2021/12/07 04:21:47;;;;;;;;;;;;;;;;;;4756445;29;32365;-67
2021/12/07 04:24:13;;;;;;;;;;;;;;;;;;4756963;29;32473;-67
2021/12/07 04:26:40;;;;;;;;;;;;;;;;;;4757636;29;32738;-67
2021/12/07 04:29:06;;;;;;;;;;;;;;;;;;4766090;29;35515;-67
2021/12/07 04:31:32;;;;;;;;;;;;;;;;;;4781524;29;33255;-67
2021/12/07 04:33:59;;;;;;;;;;;;;;;;;;4775469;29;32751;-68
2021/12/07 04:36:26;;;;;;;;;;;;;;;;;;4775479;29;32456;-68
2021/12/07 04:38:53;;;;;;;;;;;;;;;;;;4790051;29;32442;-66
2021/12/07 04:41:19;;;;;;;;;;;;;;;;;;4793556;29;32742;-68
2021/12/07 04:43:48;;;;;;;;;;;;;;;;;;4793502;29;32494;-67
2021/12/07 04:46:23;;;;;;;;;;;;;;;;;;4792909;29;32395;-67
2021/12/07 04:49:27;;;;;;;;;;;;;;;;;;4793553;29;32520;-67
2021/12/07 04:59:58;;;;;;;;;;;;;;;;;;4782892;29;32551;-66
2021/12/07 05:02:24;;;;;;;;;;;;;;;;;;4782040;29;32485;-67
2021/12/07 05:04:50;;;;;;;;;;;;;;;;;;4782399;29;32484;-68
2021/12/07 05:07:27;;;;;;;;;;;;;;;;;;4782681;29;32485;-67
2021/12/07 05:10:12;;;;;;;;;;;;;;;;;;4783570;29;32545;-67
2021/12/07 05:12:57;;;;;;;;;;;;;;;;;;4783151;29;32384;-67
2021/12/07 05:26:10;;;;;;;;;;;;;;;;;;4782607;29;32501;-68
2021/12/07 05:39:37;;;;;;;;;;;;;;;;;;4782594;29;34229;-68
2021/12/07 05:42:04;;;;;;;;;;;;;;;;;;4780223;29;32368;-67
2021/12/07 05:44:30;;;;;;;;;;;;;;;;;;4782304;29;32269;-68
2021/12/07 05:46:56;;;;;;;;;;;;;;;;;;4782057;29;32607;-68
2021/12/07 05:49:22;;;;;;;;;;;;;;;;;;4782356;29;35575;-68
2021/12/07 05:51:49;;;;;;;;;;;;;;;;;;4781501;29;32447;-68
2021/12/07 05:54:15;;;;;;;;;;;;;;;;;;4780893;29;33146;-68
2021/12/07 05:56:43;;;;;;;;;;;;;;;;;;4782708;29;32544;-68
2021/12/07 05:59:09;;;;;;;;;;;;;;;;;;4781618;29;32354;-68
2021/12/07 06:01:35;;;;;;;;;;;;;;;;;;4782270;29;35258;-67
2021/12/07 06:04:01;;;;;;;;;;;;;;;;;;4780398;29;32528;-68
2021/12/07 06:06:27;;;;;;;;;;;;;;;;;;4781666;29;33125;-68
2021/12/07 06:08:54;;;;;;;;;;;;;;;;;;4782370;29;32559;-68
2021/12/07 06:11:22;;;;;;;;;;;;;;;;;;4782221;29;34685;-68
2021/12/07 06:13:49;;;;;;;;;;;;;;;;;;4781221;29;32649;-67
2021/12/07 06:16:16;;;;;;;;;;;;;;;;;;4781968;29;32395;-68
2021/12/07 06:18:44;;;;;;;;;;;;;;;;;;4777288;29;32270;-67
2021/12/07 06:21:10;;;;;;;;;;;;;;;;;;4781309;29;32423;-68
2021/12/07 06:23:36;;;;;;;;;;;;;;;;;;4776715;29;35290;-68
2021/12/07 06:26:03;;;;;;;;;;;;;;;;;;4781368;29;32358;-67
2021/12/07 06:28:29;;;;;;;;;;;;;;;;;;4781123;29;33126;-67
2021/12/07 06:30:57;;;;;;;;;;;;;;;;;;4781404;29;32538;-67
2021/12/07 06:33:25;;;;;;;;;;;;;;;;;;4782071;29;35421;-67
2021/12/07 06:35:56;;;;;;;;;;;;;;;;;;4780783;29;32840;-69
2021/12/07 06:38:22;;;;;;;;;;;;;;;;;;4782462;29;32429;-67
2021/12/07 06:40:49;;;;;;;;;;;;;;;;;;4781705;29;32417;-67
2021/12/07 06:43:15;;;;;;;;;;;;;;;;;;4781456;29;32638;-67
2021/12/07 06:45:41;;;;;;;;;;;;;;;;;;4781362;29;34158;-64
2021/12/07 06:48:09;;;;;;;;;;;;;;;;;;4781065;29;32901;-66
2021/12/07 06:50:36;;;;;;;;;;;;;;;;;;4781609;29;32374;-67
2021/12/07 06:53:02;;;;;;;;;;;;;;;;;;4782217;29;32615;-66
2021/12/07 06:55:29;;;;;;;;;;;;;;;;;;4780758;29;35169;-66
2021/12/07 06:57:55;;;;;;;;;;;;;;;;;;4781115;29;32448;-66
2021/12/07 07:00:21;;;;;;;;;;;;;;;;;;4782775;29;32552;-67
2021/12/07 07:02:48;;;;;;;;;;;;;;;;;;4784947;29;32807;-70
2021/12/07 07:05:16;;;;;;;;;;;;;;;;;;4781924;29;32412;-69
2021/12/07 07:07:43;;;;;;;;;;;;;;;;;;4782903;29;34092;-69
2021/12/07 07:10:12;;;;;;;;;;;;;;;;;;4783356;29;32599;-69
2021/12/07 07:12:38;;;;;;;;;;;;;;;;;;4783846;29;32822;-68
2021/12/07 07:15:05;;;;;;;;;;;;;;;;;;4784350;29;32621;-69
2021/12/07 07:17:31;;;;;;;;;;;;;;;;;;4784549;29;35322;-69
2021/12/07 07:19:58;;;;;;;;;;;;;;;;;;4782959;29;32661;-69
2021/12/07 07:22:25;;;;;;;;;;;;;;;;;;4784284;29;32594;-68
2021/12/07 07:24:52;;;;;;;;;;;;;;;;;;4779056;29;33282;-68
2021/12/07 07:27:19;;;;;;;;;;;;;;;;;;4783471;29;32534;-69
2021/12/07 07:29:45;;;;;;;;;;;;;;;;;;4783442;29;34673;-68
2021/12/07 07:32:12;;;;;;;;;;;;;;;;;;4783563;29;32582;-68
2021/12/07 07:34:38;;;;;;;;;;;;;;;;;;4777589;29;32341;-68
2021/12/07 07:37:04;;;;;;;;;;;;;;;;;;4784495;29;32363;-69
2021/12/07 07:39:32;;;;;;;;;;;;;;;;;;4783114;29;34248;-69
2021/12/07 07:41:58;;;;;;;;;;;;;;;;;;4782500;29;32472;-69
2021/12/07 07:44:24;;;;;;;;;;;;;;;;;;4783634;29;32487;-69
2021/12/07 07:46:51;;;;;;;;;;;;;;;;;;4782909;29;32478;-69
2021/12/07 07:49:17;;;;;;;;;;;;;;;;;;4783314;29;32441;-69
2021/12/07 07:51:43;;;;;;;;;;;;;;;;;;4781802;29;35756;-69
2021/12/07 07:54:09;;;;;;;;;;;;;;;;;;4782885;29;32503;-70
2021/12/07 07:56:37;;;;;;;;;;;;;;;;;;4783363;29;32461;-70
2021/12/07 07:59:04;;;;;;;;;;;;;;;;;;4784624;29;32526;-69
2021/12/07 08:01:31;;;;;;;;;;;;;;;;;;4783797;29;35335;-69
2021/12/07 08:03:57;;;;;;;;;;;;;;;;;;4782583;29;32514;-69
2021/12/07 08:06:24;;;;;;;;;;;;;;;;;;4783482;29;32467;-69
2021/12/07 08:08:50;;;;;;;;;;;;;;;;;;4783224;29;32376;-70
2021/12/07 08:11:16;;;;;;;;;;;;;;;;;;4782616;29;32819;-70
2021/12/07 08:13:44;;;;;;;;;;;;;;;;;;4783111;29;34653;-70
2021/12/07 08:16:15;;;;;;;;;;;;;;;;;;4783834;29;32559;-69
2021/12/07 08:18:42;;;;;;;;;;;;;;;;;;4782805;29;32917;-69
2021/12/07 08:21:09;;;;;;;;;;;;;;;;;;4783227;29;32887;-69
2021/12/07 08:23:35;;;;;;;;;;;;;;;;;;4783366;29;35349;-69
2021/12/07 08:26:02;;;;;;;;;;;;;;;;;;4782972;29;32539;-69
2021/12/07 08:28:28;;;;;;;;;;;;;;;;;;4782168;29;32543;-70
2021/12/07 08:30:56;;;;;;;;;;;;;;;;;;4782641;29;32432;-69
2021/12/07 08:33:22;;;;;;;;;;;;;;;;;;4783792;29;32451;-70
2021/12/07 08:35:49;;;;;;;;;;;;;;;;;;4782373;29;35685;-69
2021/12/07 08:38:15;;;;;;;;;;;;;;;;;;4777533;29;32423;-69
2021/12/07 08:40:42;;;;;;;;;;;;;;;;;;4783504;29;32714;-69
2021/12/07 08:43:12;;;;;;;;;;;;;;;;;;4773088;29;32449;-69
2021/12/07 08:45:39;;;;;;;;;;;;;;;;;;4780841;29;34834;-69
2021/12/07 08:48:08;;;;;;;;;;;;;;;;;;4782930;29;32420;-69
2021/12/07 08:50:34;;;;;;;;;;;;;;;;;;4782170;29;32442;-68
2021/12/07 08:53:05;;;;;;;;;;;;;;;;;;4783799;29;32377;-69
2021/12/07 09:01:03;;;;;;;;;;;;;;;;;;4782918;29;32345;-69
2021/12/07 09:03:31;;;;;;;;;;;;;;;;;;4781377;29;32556;-70
2021/12/07 09:05:57;;;;;;;;;;;;;;;;;;4783640;29;32573;-68
2021/12/07 09:08:24;;;;;;;;;;;;;;;;;;4782658;29;34851;-68
2021/12/07 09:10:50;;;;;;;;;;;;;;;;;;4778138;29;32500;-68
2021/12/07 09:13:17;;;;;;;;;;;;;;;;;;4782756;29;32371;-68
2021/12/07 09:15:43;;;;;;;;;;;;;;;;;;4782237;29;32468;-69
2021/12/07 09:18:09;;;;;;;;;;;;;;;;;;4783033;29;32577;-70
2021/12/07 09:20:37;;;;;;;;;;;;;;;;;;4782463;29;35397;-69
2021/12/07 09:23:03;;;;;;;;;;;;;;;;;;4781984;29;32485;-69
2021/12/07 09:25:30;;;;;;;;;;;;;;;;;;4778977;29;32757;-70
2021/12/07 09:27:57;;;;;;;;;;;;;;;;;;4781450;29;32432;-70
2021/12/07 09:30:24;;;;;;;;;;;;;;;;;;4779997;29;35558;-68
2021/12/07 09:32:50;;;;;;;;;;;;;;;;;;4781510;29;32682;-70
2021/12/07 09:35:17;;;;;;;;;;;;;;;;;;4781738;29;32707;-68
2021/12/07 09:37:44;;;;;;;;;;;;;;;;;;4782308;29;32611;-69
2021/12/07 09:40:14;;;;;;;;;;;;;;;;;;4782441;29;32552;-69
2021/12/07 09:42:40;;;;;;;;;;;;;;;;;;4780399;29;34726;-69
2021/12/07 09:45:08;;;;;;;;;;;;;;;;;;4777102;29;32483;-69
2021/12/07 09:47:35;;;;;;;;;;;;;;;;;;4782317;29;32606;-69
2021/12/07 09:50:01;;;;;;;;;;;;;;;;;;4782770;29;32583;-69
2021/12/07 09:52:28;;;;;;;;;;;;;;;;;;4781487;29;35620;-69
2021/12/07 09:54:55;;;;;;;;;;;;;;;;;;4776357;29;34336;-69
2021/12/07 09:57:22;;;;;;;;;;;;;;;;;;4781574;29;32342;-69
2021/12/07 09:59:48;;;;;;;;;;;;;;;;;;4781292;29;32571;-69
2021/12/07 10:02:14;;;;;;;;;;;;;;;;;;4782291;29;32393;-69
2021/12/07 10:04:40;;;;;;;;;;;;;;;;;;4781656;29;34064;-70
2021/12/07 10:07:08;;;;;;;;;;;;;;;;;;4782426;29;32784;-69
2021/12/07 10:09:35;;;;;;;;;;;;;;;;;;4782679;29;33021;-68
2021/12/07 10:12:03;;;;;;;;;;;;;;;;;;4781779;29;32904;-69
2021/12/07 10:14:36;;;;;;;;;;;;;;;;;;4781818;29;34672;-70
2021/12/07 10:17:02;;;;;;;;;;;;;;;;;;4779524;29;32467;-69
2021/12/07 10:19:31;;;;;;;;;;;;;;;;;;4781421;29;32846;-69
2021/12/07 10:22:01;;;;;;;;;;;;;;;;;;4781665;29;33259;-69
2021/12/07 10:24:37;;;;;;;;;;;;;;;;;;4781197;29;32664;-69
2021/12/07 10:27:05;;;;;;;;;;;;;;;;;;4780312;29;34058;-69
2021/12/07 10:29:31;;;;;;;;;;;;;;;;;;4782465;29;32404;-69
2021/12/07 10:32:01;;;;;;;;;;;;;;;;;;4781428;29;32478;-70
2021/12/07 10:34:32;;;;;;;;;;;;;;;;;;4781984;29;32524;-69
2021/12/07 10:37:06;;;;;;;;;;;;;;;;;;4782393;29;34745;-70
2021/12/07 10:39:34;;;;;;;;;;;;;;;;;;4781120;29;32841;-69
2021/12/07 10:42:02;;;;;;;;;;;;;;;;;;4781344;29;32722;-68
2021/12/07 10:44:31;;;;;;;;;;;;;;;;;;4782396;29;32479;-69
2021/12/07 10:46:58;;;;;;;;;;;;;;;;;;4780829;29;32706;-69
2021/12/07 10:49:32;;;;;;;;;;;;;;;;;;4781609;29;34808;-69
2021/12/07 10:52:15;;;;;;;;;;;;;;;;;;4781382;29;32481;-69
2021/12/07 10:54:45;;;;;;;;;;;;;;;;;;4781891;29;32993;-69
2021/12/07 10:57:14;;;;;;;;;;;;;;;;;;4775402;29;32843;-69
2021/12/07 10:59:49;;;;;;;;;;;;;;;;;;4781750;29;34167;-68
2021/12/07 11:02:17;;;;;;;;;;;;;;;;;;4780240;29;32474;-69
2021/12/07 11:04:44;;;;;;;;;;;;;;;;;;4780422;29;32464;-69
2021/12/07 11:07:16;;;;;;;;;;;;;;;;;;4781637;29;32563;-69
2021/12/07 11:09:55;;;;;;;;;;;;;;;;;;4781880;29;32391;-69
2021/12/07 11:12:23;;;;;;;;;;;;;;;;;;4782164;29;34446;-69
2021/12/07 11:14:53;;;;;;;;;;;;;;;;;;4781231;29;32459;-68
2021/12/07 11:17:21;;;;;;;;;;;;;;;;;;4780360;29;32535;-69
2021/12/07 11:19:48;;;;;;;;;;;;;;;;;;4781286;29;32436;-69
2021/12/07 11:22:16;;;;;;;;;;;;;;;;;;4780452;29;34732;-69
2021/12/07 11:24:44;;;;;;;;;;;;;;;;;;4780998;29;32610;-69
2021/12/07 11:30:00;;;;;;;;;;;;;;;;;;4781575;29;32711;-69
2021/12/07 11:32:27;;;;;;;;;;;;;;;;;;4780364;29;32398;-69
2021/12/07 11:34:54;;;;;;;;;;;;;;;;;;4780923;29;35667;-69
2021/12/07 11:37:23;;;;;;;;;;;;;;;;;;4781635;29;32999;-69
2021/12/07 11:39:53;;;;;;;;;;;;;;;;;;4781048;29;32595;-69
2021/12/07 11:42:21;;;;;;;;;;;;;;;;;;4780862;29;32472;-69
2021/12/07 11:44:51;;;;;;;;;;;;;;;;;;4779213;29;35474;-70
2021/12/07 11:47:26;;;;;;;;;;;;;;;;;;4781745;29;32892;-70
2021/12/07 11:49:52;;;;;;;;;;;;;;;;;;4783417;29;32565;-70
2021/12/07 11:52:19;;;;;;;;;;;;;;;;;;4784055;29;32384;-69
2021/12/07 11:54:45;;;;;;;;;;;;;;;;;;4783992;29;32452;-70
2021/12/07 11:57:12;;;;;;;;;;;;;;;;;;4784209;29;34470;-71
2021/12/07 11:59:39;;;;;;;;;;;;;;;;;;4778861;29;32453;-70
2021/12/07 12:02:06;;;;;;;;;;;;;;;;;;4778764;29;32511;-70
2021/12/07 12:04:34;;;;;;;;;;;;;;;;;;4783708;29;32445;-69
2021/12/07 12:07:00;;;;;;;;;;;;;;;;;;4781040;29;35800;-68
2021/12/07 12:09:27;;;;;;;;;;;;;;;;;;4782652;29;32536;-69
2021/12/07 12:12:01;;;;;;;;;;;;;;;;;;4782989;29;32517;-69
2021/12/07 12:14:39;;;;;;;;;;;;;;;;;;4783287;29;32496;-69
2021/12/07 12:17:08;;;;;;;;;;;;;;;;;;4782355;29;33008;-69
2021/12/07 12:19:43;;;;;;;;;;;;;;;;;;4783255;29;34640;-68
2021/12/07 12:22:14;;;;;;;;;;;;;;;;;;4780657;29;32428;-68
2021/12/07 12:24:45;;;;;;;;;;;;;;;;;;4782917;29;32833;-69
2021/12/07 12:27:14;;;;;;;;;;;;;;;;;;4783495;29;32552;-69
2021/12/07 12:29:42;;;;;;;;;;;;;;;;;;4783640;29;35944;-69
2021/12/07 12:32:09;;;;;;;;;;;;;;;;;;4782512;29;32728;-69
2021/12/07 12:34:37;;;;;;;;;;;;;;;;;;4783137;29;32356;-69
2021/12/07 12:37:09;;;;;;;;;;;;;;;;;;4782561;29;32589;-69
2021/12/07 12:39:50;;;;;;;;;;;;;;;;;;4783255;29;32463;-69
2021/12/07 12:42:23;;;;;;;;;;;;;;;;;;4783396;29;34065;-68
2021/12/07 12:44:55;;;;;;;;;;;;;;;;;;4782046;29;32525;-69
2021/12/07 12:47:25;;;;;;;;;;;;;;;;;;4782869;29;32451;-70
2021/12/07 12:49:51;;;;;;;;;;;;;;;;;;4782851;29;32408;-69
2021/12/07 12:52:37;;;;;;;;;;;;;;;;;;4783412;29;34036;-69
2021/12/07 12:55:04;;;;;;;;;;;;;;;;;;4783328;29;32631;-70
2021/12/07 12:57:30;;;;;;;;;;;;;;;;;;4781138;29;32573;-68
2021/12/07 12:59:56;;;;;;;;;;;;;;;;;;4782725;29;32368;-69
2021/12/07 13:02:23;;;;;;;;;;;;;;;;;;4783446;29;32430;-69
2021/12/07 13:05:01;;;;;;;;;;;;;;;;;;4776850;29;34223;-69
2021/12/07 13:07:29;;;;;;;;;;;;;;;;;;4782425;29;32456;-70
2021/12/07 13:09:57;;;;;;;;;;;;;;;;;;4777464;29;32542;-70
2021/12/07 13:12:25;;;;;;;;;;;;;;;;;;4766119;29;32455;-68
2021/12/07 13:14:55;;;;;;;;;;;;;;;;;;4782487;29;34170;-69
2021/12/07 13:17:25;;;;;;;;;;;;;;;;;;4783475;29;32433;-69
2021/12/07 13:20:21;;;;;;;;;;;;;;;;;;4783082;29;32667;-70
2021/12/07 13:22:52;;;;;;;;;;;;;;;;;;4769960;29;32758;-68
2021/12/07 13:25:20;;;;;;;;;;;;;;;;;;4782547;29;32614;-69
2021/12/07 13:28:12;;;;;;;;;;;;;;;;;;4782971;29;34802;-70
2021/12/07 13:30:49;;;;;;;;;;;;;;;;;;4782680;29;32448;-69
2021/12/07 13:33:16;;;;;;;;;;;;;;;;;;4781268;29;32461;-69
2021/12/07 13:35:43;;;;;;;;;;;;;;;;;;4782842;29;32426;-68
2021/12/07 13:38:17;;;;;;;;;;;;;;;;;;4781603;29;35271;-70
2021/12/07 13:40:44;;;;;;;;;;;;;;;;;;4783245;29;32194;-68
2021/12/07 13:43:10;;;;;;;;;;;;;;;;;;4782076;29;32398;-69
2021/12/07 13:45:36;;;;;;;;;;;;;;;;;;4782609;29;32597;-70
2021/12/07 13:48:04;;;;;;;;;;;;;;;;;;4782247;29;32521;-69
2021/12/07 13:50:32;;;;;;;;;;;;;;;;;;4781709;29;34364;-69
2021/12/07 13:52:59;;;;;;;;;;;;;;;;;;4782307;29;32366;-69
2021/12/07 13:55:30;;;;;;;;;;;;;;;;;;4781482;29;33043;-69
2021/12/07 13:57:58;;;;;;;;;;;;;;;;;;4765556;29;32890;-70
2021/12/07 14:00:25;;;;;;;;;;;;;;;;;;4781954;29;34855;-70
2021/12/07 14:02:55;;;;;;;;;;;;;;;;;;4781846;29;32883;-69
2021/12/07 14:05:26;;;;;;;;;;;;;;;;;;4782150;29;32477;-70
2021/12/07 14:07:54;;;;;;;;;;;;;;;;;;4780710;29;32879;-70
2021/12/07 14:10:21;;;;;;;;;;;;;;;;;;4781880;29;32514;-70
2021/12/07 14:12:49;;;;;;;;;;;;;;;;;;4778428;29;32527;-70
2021/12/07 14:15:18;;;;;;;;;;;;;;;;;;4782032;29;32459;-70
2021/12/07 14:17:48;;;;;;;;;;;;;;;;;;4781230;29;32383;-70
2021/12/07 14:20:26;;;;;;;;;;;;;;;;;;4779101;29;32439;-70
2021/12/07 14:22:52;;;;;;;;;;;;;;;;;;4781443;29;34792;-70
2021/12/07 14:25:19;;;;;;;;;;;;;;;;;;4782329;29;32306;-70
2021/12/07 14:27:45;;;;;;;;;;;;;;;;;;4780939;29;32590;-70
2021/12/07 14:30:13;;;;;;;;;;;;;;;;;;4781715;29;32722;-70
2021/12/07 14:32:40;;;;;;;;;;;;;;;;;;4783335;29;32379;-69
2021/12/07 14:35:07;;;;;;;;;;;;;;;;;;4773264;29;32633;-71
2021/12/07 14:37:33;;;;;;;;;;;;;;;;;;4779172;29;33786;-72
2021/12/07 14:39:59;;;;;;;;;;;;;;;;;;4775466;29;32384;-71
2021/12/07 14:42:27;;;;;;;;;;;;;;;;;;4775786;29;32559;-72
2021/12/07 14:44:56;;;;;;;;;;;;;;;;;;4774309;29;34691;-72
2021/12/07 14:47:24;;;;;;;;;;;;;;;;;;4773992;29;32556;-72
2021/12/07 14:49:52;;;;;;;;;;;;;;;;;;4775436;29;32547;-73
2021/12/07 14:52:20;;;;;;;;;;;;;;;;;;4780832;29;32647;-73
2021/12/07 14:54:50;;;;;;;;;;;;;;;;;;4778979;29;32554;-73
2021/12/07 14:57:20;;;;;;;;;;;;;;;;;;4778535;29;32345;-73
2021/12/07 14:59:48;;;;;;;;;;;;;;;;;;4779281;29;32414;-74
2021/12/07 15:02:15;;;;;;;;;;;;;;;;;;4776948;29;32648;-71
2021/12/07 15:04:42;;;;;;;;;;;;;;;;;;4779118;29;32937;-70
2021/12/07 15:07:11;;;;;;;;;;;;;;;;;;4776245;29;37873;-71
2021/12/07 15:09:38;;;;;;;;;;;;;;;;;;4778949;29;32489;-72
2021/12/07 15:12:06;;;;;;;;;;;;;;;;;;4776531;29;32492;-72
2021/12/07 15:14:32;;;;;;;;;;;;;;;;;;4773414;29;32562;-70
2021/12/07 15:17:01;;;;;;;;;;;;;;;;;;4778449;29;32702;-71
2021/12/07 15:19:28;;;;;;;;;;;;;;;;;;4771719;29;32380;-72
2021/12/07 15:21:56;;;;;;;;;;;;;;;;;;4773880;29;36516;-68
2021/12/07 15:24:24;;;;;;;;;;;;;;;;;;4782574;29;32283;-70
2021/12/07 15:26:51;;;;;;;;;;;;;;;;;;4780777;29;32354;-69
2021/12/07 15:29:18;;;;;;;;;;;;;;;;;;4780036;29;34117;-71
2021/12/07 15:31:46;;;;;;;;;;;;;;;;;;4779882;29;32509;-68
2021/12/07 15:34:13;;;;;;;;;;;;;;;;;;4780024;29;32384;-70
2021/12/07 15:36:43;;;;;;;;;;;;;;;;;;4779832;29;32737;-70
2021/12/07 15:39:17;;;;;;;;;;;;;;;;;;4780679;29;32294;-69
2021/12/07 15:41:46;;;;;;;;;;;;;;;;;;4777704;29;32415;-70
2021/12/07 15:44:13;;;;;;;;;;;;;;;;;;4776868;29;34170;-69
2021/12/07 15:46:47;;;;;;;;;;;;;;;;;;4778184;29;32638;-69
2021/12/07 15:49:22;;;;;;;;;;;;;;;;;;4781749;29;32434;-70
2021/12/07 15:51:49;;;;;;;;;;;;;;;;;;4778948;29;35664;-69
2021/12/07 15:54:17;;;;;;;;;;;;;;;;;;4779464;29;32556;-71
2021/12/07 15:56:43;;;;;;;;;;;;;;;;;;4777433;29;32620;-71
2021/12/07 15:59:14;;;;;;;;;;;;;;;;;;4779934;29;32560;-70
2021/12/07 16:01:40;;;;;;;;;;;;;;;;;;4783370;29;32689;-71
2021/12/07 16:04:09;;;;;;;;;;;;;;;;;;4781334;29;32529;-70
2021/12/07 16:06:36;;;;;;;;;;;;;;;;;;4779197;29;32482;-69
2021/12/07 16:09:13;;;;;;;;;;;;;;;;;;4777687;29;32820;-69
2021/12/07 16:11:41;;;;;;;;;;;;;;;;;;4778409;29;32486;-70
2021/12/07 16:14:07;;;;;;;;;;;;;;;;;;4777642;29;35960;-70
2021/12/07 16:16:34;;;;;;;;;;;;;;;;;;4780783;29;32808;-70
2021/12/07 16:19:00;;;;;;;;;;;;;;;;;;4782287;29;32352;-70
2021/12/07 16:21:30;;;;;;;;;;;;;;;;;;4781243;29;32467;-71
2021/12/07 16:24:00;;;;;;;;;;;;;;;;;;4773961;29;35021;-69
2021/12/07 16:26:29;;;;;;;;;;;;;;;;;;4773801;29;32500;-69
2021/12/07 16:28:58;;;;;;;;;;;;;;;;;;4781638;29;32484;-69
2021/12/07 16:31:26;;;;;;;;;;;;;;;;;;4781507;29;32582;-69
2021/12/07 16:33:53;;;;;;;;;;;;;;;;;;4781320;29;32474;-70
2021/12/07 16:36:21;;;;;;;;;;;;;;;;;;4781433;29;35673;-70
2021/12/07 16:38:47;;;;;;;;;;;;;;;;;;4782108;29;32347;-69
2021/12/07 16:41:18;;;;;;;;;;;;;;;;;;4781431;29;32573;-70
2021/12/07 16:43:48;;;;;;;;;;;;;;;;;;4780785;29;32534;-70
2021/12/07 16:46:16;;;;;;;;;;;;;;;;;;4779101;29;34176;-71
2021/12/07 16:48:43;;;;;;;;;;;;;;;;;;4782294;29;32490;-72
2021/12/07 16:51:09;;;;;;;;;;;;;;;;;;4779722;29;32691;-71
2021/12/07 16:53:36;;;;;;;;;;;;;;;;;;4780754;29;32373;-69
2021/12/07 16:56:03;;;;;;;;;;;;;;;;;;4782830;29;32835;-70
2021/12/07 16:58:29;;;;;;;;;;;;;;;;;;4779112;29;34182;-70
2021/12/07 17:00:55;;;;;;;;;;;;;;;;;;4781451;29;32453;-71
2021/12/07 17:03:23;;;;;;;;;;;;;;;;;;4781112;29;32536;-71
2021/12/07 17:05:51;;;;;;;;;;;;;;;;;;4782470;29;31896;-73
2021/12/07 17:08:18;;;;;;;;;;;;;;;;;;4780522;29;35203;-72
2021/12/07 17:10:45;;;;;;;;;;;;;;;;;;4772774;29;32864;-71
2021/12/07 17:13:12;;;;;;;;;;;;;;;;;;4778376;29;32534;-73
2021/12/07 17:15:41;;;;;;;;;;;;;;;;;;4780414;29;33164;-73
2021/12/07 17:18:08;;;;;;;;;;;;;;;;;;4780060;29;32540;-74
2021/12/07 17:20:35;;;;;;;;;;;;;;;;;;4776678;29;34754;-72
2021/12/07 17:23:02;;;;;;;;;;;;;;;;;;4774689;29;32578;-73
2021/12/07 17:25:28;;;;;;;;;;;;;;;;;;4765180;29;32781;-73
2021/12/07 17:27:56;;;;;;;;;;;;;;;;;;4772845;29;32870;-71
2021/12/07 17:30:24;;;;;;;;;;;;;;;;;;4775397;29;35374;-72
2021/12/07 17:32:50;;;;;;;;;;;;;;;;;;4772884;29;32739;-72
2021/12/07 17:35:17;;;;;;;;;;;;;;;;;;4774242;29;32579;-71
2021/12/07 17:37:46;;;;;;;;;;;;;;;;;;4775310;29;32487;-73
2021/12/07 17:40:14;;;;;;;;;;;;;;;;;;4774402;29;32628;-73
2021/12/07 17:42:41;;;;;;;;;;;;;;;;;;4776569;29;34142;-72
2021/12/07 17:45:08;;;;;;;;;;;;;;;;;;4777435;29;33113;-73
2021/12/07 17:47:35;;;;;;;;;;;;;;;;;;4778047;29;32592;-71
2021/12/07 17:50:03;;;;;;;;;;;;;;;;;;4777289;29;32509;-71
2021/12/07 17:52:30;;;;;;;;;;;;;;;;;;4776042;29;34705;-70
2021/12/07 17:54:57;;;;;;;;;;;;;;;;;;4777168;29;32452;-73
2021/12/07 17:57:23;;;;;;;;;;;;;;;;;;4772564;29;32621;-73
2021/12/07 17:59:50;;;;;;;;;;;;;;;;;;4773885;29;32698;-71
2021/12/07 18:02:16;;;;;;;;;;;;;;;;;;4773927;29;32921;-72
2021/12/07 18:04:42;;;;;;;;;;;;;;;;;;4775045;29;34525;-74
2021/12/07 18:07:09;;;;;;;;;;;;;;;;;;4776799;29;32568;-74
2021/12/07 18:09:35;;;;;;;;;;;;;;;;;;4775506;29;32631;-73
2021/12/07 18:12:03;;;;;;;;;;;;;;;;;;4776893;29;32557;-72
2021/12/07 18:14:29;;;;;;;;;;;;;;;;;;4779411;29;35284;-72
2021/12/07 18:16:57;;;;;;;;;;;;;;;;;;4778172;29;32864;-73
2021/12/07 18:19:23;;;;;;;;;;;;;;;;;;4778791;29;32452;-73
2021/12/07 18:21:49;;;;;;;;;;;;;;;;;;4776896;29;32765;-72
2021/12/07 18:24:16;;;;;;;;;;;;;;;;;;4777536;29;32527;-73
2021/12/07 18:26:42;;;;;;;;;;;;;;;;;;4777513;29;34039;-72
2021/12/07 18:29:10;;;;;;;;;;;;;;;;;;4768359;29;32572;-70